Time;durP1;ratioP1;P1;durP2;ratioP2;P2;SDS_P1;SDS_P2;PMS_P1;PMS_P2;Temp;Humidity;BMP_temperature;BMP_pressure;BME280_temperature;BME280_humidity;BME280_pressure;Samples;Min_cycle;Max_cycle;Signal;HPM_P1;HPM_P2
2024/01/11 00:00:47;;;;;;;55.80;26.95;;;;;;;;;;6132107;23;20021;-81
2024/01/11 00:03:14;;;;;;;57.67;28.17;;;;;;;;;;6132587;23;20045;-81
2024/01/11 00:05:41;;;;;;;54.40;28.15;;;;;;;;;;6134482;23;20346;-80
2024/01/11 00:08:09;;;;;;;55.92;27.15;;;;;;;;;;6132961;23;20190;-82
2024/01/11 00:10:38;;;;;;;53.45;27.05;;;;;;;;;;6131815;23;20026;-83
2024/01/11 00:13:08;;;;;;;53.25;27.58;;;;;;;;;;6132666;23;20463;-83
2024/01/11 00:15:35;;;;;;;60.10;28.88;;;;;;;;;;6131163;23;20033;-82
2024/01/11 00:18:02;;;;;;;53.83;28.02;;;;;;;;;;6130278;23;20017;-83
2024/01/11 00:20:28;;;;;;;48.90;25.73;;;;;;;;;;6132298;23;20089;-81
2024/01/11 00:22:57;;;;;;;52.17;26.02;;;;;;;;;;6133692;23;20080;-80
2024/01/11 00:25:24;;;;;;;46.88;25.48;;;;;;;;;;6141768;23;20073;-82
2024/01/11 00:27:51;;;;;;;50.10;26.15;;;;;;;;;;6135065;23;20022;-82
2024/01/11 00:30:17;;;;;;;47.42;24.27;;;;;;;;;;6133422;23;20025;-80
2024/01/11 00:32:44;;;;;;;45.22;24.50;;;;;;;;;;6133877;23;20025;-82
2024/01/11 00:35:10;;;;;;;47.95;25.48;;;;;;;;;;6133672;23;20118;-84
2024/01/11 00:37:40;;;;;;;54.13;27.33;;;;;;;;;;6133479;23;20021;-84
2024/01/11 00:40:07;;;;;;;51.83;26.85;;;;;;;;;;6133447;23;20062;-84
2024/01/11 00:42:38;;;;;;;52.72;25.05;;;;;;;;;;6133590;23;20018;-83
2024/01/11 00:45:10;;;;;;;60.60;27.67;;;;;;;;;;6133481;23;20022;-81
2024/01/11 00:47:36;;;;;;;48.17;25.43;;;;;;;;;;6133324;23;20033;-82
2024/01/11 00:50:03;;;;;;;48.58;25.38;;;;;;;;;;6132213;23;20246;-82
2024/01/11 00:52:29;;;;;;;54.17;24.60;;;;;;;;;;6132487;23;20033;-81
2024/01/11 00:54:56;;;;;;;48.15;25.92;;;;;;;;;;6133201;23;20053;-81
2024/01/11 00:57:22;;;;;;;59.50;27.17;;;;;;;;;;6134118;23;20033;-81
2024/01/11 00:59:50;;;;;;;49.33;25.08;;;;;;;;;;6131954;23;20017;-82
2024/01/11 01:02:16;;;;;;;56.15;27.50;;;;;;;;;;6136063;23;20025;-83
2024/01/11 01:04:43;;;;;;;57.28;24.80;;;;;;;;;;6137372;23;20087;-82
2024/01/11 01:07:12;;;;;;;50.08;26.63;;;;;;;;;;6136842;23;20025;-83
2024/01/11 01:09:40;;;;;;;49.03;25.33;;;;;;;;;;6137681;23;20050;-83
2024/01/11 01:12:07;;;;;;;51.05;25.02;;;;;;;;;;6137292;23;20025;-82
2024/01/11 01:14:34;;;;;;;51.90;25.70;;;;;;;;;;6136655;23;20066;-82
2024/01/11 01:17:02;;;;;;;48.28;26.08;;;;;;;;;;6137233;23;20063;-81
2024/01/11 01:19:28;;;;;;;56.17;26.10;;;;;;;;;;6137732;23;20066;-82
2024/01/11 01:21:57;;;;;;;56.38;26.60;;;;;;;;;;6138371;23;20022;-82
2024/01/11 01:24:24;;;;;;;49.40;25.83;;;;;;;;;;6138056;23;20026;-83
2024/01/11 01:26:50;;;;;;;53.05;27.05;;;;;;;;;;6137836;23;20025;-81
2024/01/11 01:29:19;;;;;;;55.90;26.05;;;;;;;;;;6139221;23;20026;-82
2024/01/11 01:31:47;;;;;;;56.03;27.15;;;;;;;;;;6140673;23;20026;-83
2024/01/11 01:34:15;;;;;;;50.25;25.35;;;;;;;;;;6149927;23;20053;-82
2024/01/11 01:36:45;;;;;;;53.38;26.02;;;;;;;;;;6134991;23;20041;-81
2024/01/11 01:39:13;;;;;;;51.13;25.33;;;;;;;;;;6128410;23;20041;-82
2024/01/11 01:41:49;;;;;;;52.55;24.30;;;;;;;;;;6135989;23;20026;-83
2024/01/11 01:44:19;;;;;;;51.13;23.52;;;;;;;;;;6134937;23;20167;-82
2024/01/11 01:46:52;;;;;;;47.38;23.48;;;;;;;;;;6133780;23;20021;-82
2024/01/11 01:52:20;;;;;;;48.97;22.80;;;;;;;;;;6133626;23;20057;-82
2024/01/11 01:54:48;;;;;;;45.53;22.75;;;;;;;;;;6133726;23;20094;-83
2024/01/11 01:57:17;;;;;;;45.75;22.92;;;;;;;;;;6133632;23;20028;-84
2024/01/11 01:59:46;;;;;;;43.83;22.20;;;;;;;;;;6133853;23;20026;-83
2024/01/11 02:02:19;;;;;;;42.88;21.33;;;;;;;;;;6133987;23;20095;-82
2024/01/11 02:04:51;;;;;;;45.75;22.90;;;;;;;;;;6133809;23;20018;-83
2024/01/11 02:07:18;;;;;;;50.75;23.20;;;;;;;;;;6132515;23;20411;-81
2024/01/11 02:09:44;;;;;;;45.65;22.23;;;;;;;;;;6137182;23;20053;-81
2024/01/11 02:12:12;;;;;;;51.83;23.75;;;;;;;;;;6136772;23;20057;-82
2024/01/11 02:14:39;;;;;;;47.60;22.13;;;;;;;;;;6138274;23;20026;-83
2024/01/11 02:17:11;;;;;;;48.97;22.33;;;;;;;;;;6133846;23;20021;-83
2024/01/11 02:19:38;;;;;;;47.40;23.33;;;;;;;;;;6136066;23;20026;-82
2024/01/11 02:22:09;;;;;;;47.35;21.67;;;;;;;;;;6136653;23;20029;-80
2024/01/11 02:24:37;;;;;;;51.45;22.73;;;;;;;;;;6136767;23;20058;-81
2024/01/11 02:27:04;;;;;;;49.13;23.00;;;;;;;;;;6136476;23;20032;-82
2024/01/11 02:29:31;;;;;;;44.53;21.88;;;;;;;;;;6135571;23;20025;-83
2024/01/11 02:31:58;;;;;;;48.28;22.92;;;;;;;;;;6132563;23;20026;-82
2024/01/11 02:34:25;;;;;;;48.83;22.45;;;;;;;;;;6132395;23;20045;-81
2024/01/11 02:36:51;;;;;;;53.17;22.63;;;;;;;;;;6133912;23;20021;-82
2024/01/11 02:39:19;;;;;;;49.15;22.30;;;;;;;;;;6140265;23;20033;-82
2024/01/11 02:41:48;;;;;;;43.83;20.67;;;;;;;;;;6133029;23;20175;-82
2024/01/11 02:44:14;;;;;;;51.50;22.15;;;;;;;;;;6134136;23;20026;-83
2024/01/11 02:46:41;;;;;;;49.72;21.77;;;;;;;;;;6136222;23;20050;-82
2024/01/11 02:49:07;;;;;;;48.40;21.80;;;;;;;;;;6135827;23;20339;-81
2024/01/11 02:51:34;;;;;;;46.35;22.65;;;;;;;;;;6135014;23;20030;-83
2024/01/11 02:54:00;;;;;;;44.25;21.35;;;;;;;;;;6132774;23;20032;-81
2024/01/11 02:56:26;;;;;;;45.22;20.98;;;;;;;;;;6132714;23;20018;-80
2024/01/11 02:58:54;;;;;;;47.20;21.30;;;;;;;;;;6132846;23;20026;-81
2024/01/11 03:01:21;;;;;;;51.97;22.98;;;;;;;;;;6131745;23;20070;-80
2024/01/11 03:03:47;;;;;;;48.97;21.75;;;;;;;;;;6126650;23;20022;-81
2024/01/11 03:06:14;;;;;;;46.33;21.67;;;;;;;;;;6130841;23;20026;-79
2024/01/11 03:08:40;;;;;;;48.13;22.85;;;;;;;;;;6133108;23;20085;-80
2024/01/11 03:11:07;;;;;;;52.85;23.95;;;;;;;;;;6134324;23;20025;-80
2024/01/11 03:13:33;;;;;;;50.63;22.17;;;;;;;;;;6133230;23;20026;-80
2024/01/11 03:16:01;;;;;;;49.45;22.10;;;;;;;;;;6133202;23;20049;-80
2024/01/11 03:18:27;;;;;;;49.40;22.25;;;;;;;;;;6132988;23;20405;-80
2024/01/11 03:20:54;;;;;;;49.97;22.30;;;;;;;;;;6134766;23;20056;-80
2024/01/11 03:23:20;;;;;;;50.35;22.77;;;;;;;;;;6134131;23;20470;-80
2024/01/11 03:25:46;;;;;;;47.55;22.05;;;;;;;;;;6135014;23;20021;-81
2024/01/11 03:28:13;;;;;;;45.97;23.25;;;;;;;;;;6137105;23;20025;-79
2024/01/11 03:30:39;;;;;;;52.78;22.70;;;;;;;;;;6140253;23;20021;-81
2024/01/11 03:33:07;;;;;;;49.83;22.77;;;;;;;;;;6140148;23;20266;-80
2024/01/11 03:35:33;;;;;;;49.13;23.15;;;;;;;;;;6139056;23;20014;-80
2024/01/11 03:38:00;;;;;;;55.97;23.98;;;;;;;;;;6133196;23;20068;-80
2024/01/11 03:40:26;;;;;;;50.28;23.20;;;;;;;;;;6133829;23;20033;-79
2024/01/11 03:42:53;;;;;;;49.38;23.42;;;;;;;;;;6131378;23;20466;-80
2024/01/11 03:45:20;;;;;;;50.65;23.58;;;;;;;;;;6132743;23;20025;-79
2024/01/11 03:47:47;;;;;;;55.30;24.85;;;;;;;;;;6133529;23;20026;-80
2024/01/11 03:50:15;;;;;;;52.40;22.85;;;;;;;;;;6131198;23;20025;-81
2024/01/11 03:52:41;;;;;;;47.78;22.73;;;;;;;;;;6129458;23;20034;-80
2024/01/11 03:55:08;;;;;;;49.25;22.80;;;;;;;;;;6131566;23;20026;-80
2024/01/11 03:57:34;;;;;;;56.17;22.95;;;;;;;;;;6131970;23;20057;-80
2024/01/11 04:00:01;;;;;;;53.58;23.83;;;;;;;;;;6074067;23;20129;-80
2024/01/11 04:02:27;;;;;;;50.08;22.60;;;;;;;;;;6074440;23;20027;-80
2024/01/11 04:04:54;;;;;;;44.65;21.83;;;;;;;;;;6073611;23;20070;-79
2024/01/11 04:07:22;;;;;;;54.85;23.73;;;;;;;;;;6073755;23;20019;-80
2024/01/11 04:09:48;;;;;;;47.72;23.05;;;;;;;;;;6074579;23;20034;-80
2024/01/11 04:12:14;;;;;;;52.15;24.15;;;;;;;;;;6075832;23;20030;-78
2024/01/11 04:14:41;;;;;;;53.58;23.13;;;;;;;;;;6074783;23;20033;-80
2024/01/11 04:17:07;;;;;;;52.45;23.52;;;;;;;;;;6072180;23;20101;-80
2024/01/11 04:19:34;;;;;;;57.15;23.38;;;;;;;;;;6071133;23;20422;-80
2024/01/11 04:22:00;;;;;;;45.08;21.67;;;;;;;;;;6077621;23;20026;-79
2024/01/11 04:24:28;;;;;;;56.90;23.95;;;;;;;;;;6084901;23;20059;-79
2024/01/11 04:26:54;;;;;;;55.78;24.98;;;;;;;;;;6087661;23;20087;-81
2024/01/11 04:29:21;;;;;;;51.17;23.00;;;;;;;;;;6085707;23;20026;-80
2024/01/11 04:31:47;;;;;;;50.00;22.40;;;;;;;;;;6072068;23;20359;-79
2024/01/11 04:34:13;;;;;;;55.13;23.33;;;;;;;;;;6070556;23;20303;-80
2024/01/11 04:36:40;;;;;;;57.33;24.08;;;;;;;;;;6073584;23;20033;-82
2024/01/11 04:39:07;;;;;;;53.78;23.88;;;;;;;;;;6072480;23;20495;-81
2024/01/11 04:41:36;;;;;;;59.20;23.98;;;;;;;;;;6069912;23;20031;-80
2024/01/11 04:44:03;;;;;;;57.55;23.70;;;;;;;;;;6069489;23;20031;-82
2024/01/11 04:46:29;;;;;;;47.22;22.30;;;;;;;;;;6069298;23;20415;-82
2024/01/11 04:48:55;;;;;;;53.70;22.58;;;;;;;;;;6068325;23;20070;-78
2024/01/11 04:51:22;;;;;;;53.17;24.45;;;;;;;;;;6074770;23;20042;-79
2024/01/11 04:53:48;;;;;;;56.80;25.17;;;;;;;;;;6089538;23;20030;-81
2024/01/11 04:56:16;;;;;;;57.58;24.40;;;;;;;;;;6078118;23;20109;-81
2024/01/11 04:58:45;;;;;;;54.70;24.45;;;;;;;;;;6077931;23;20030;-81
2024/01/11 05:01:12;;;;;;;55.42;24.42;;;;;;;;;;6077371;23;20026;-81
2024/01/11 05:03:38;;;;;;;56.45;23.95;;;;;;;;;;6078229;23;20034;-81
2024/01/11 05:06:05;;;;;;;56.83;25.35;;;;;;;;;;6076696;23;20022;-82
2024/01/11 05:08:31;;;;;;;56.53;25.75;;;;;;;;;;6078395;23;20415;-81
2024/01/11 05:10:58;;;;;;;58.53;25.58;;;;;;;;;;6082802;23;20027;-82
2024/01/11 05:13:25;;;;;;;57.70;24.83;;;;;;;;;;6083408;23;20023;-81
2024/01/11 05:15:53;;;;;;;56.55;24.42;;;;;;;;;;6082093;23;20093;-82
2024/01/11 05:18:19;;;;;;;59.67;26.83;;;;;;;;;;6083168;23;20090;-81
2024/01/11 05:20:46;;;;;;;68.45;25.90;;;;;;;;;;6083933;23;20026;-82
2024/01/11 05:23:12;;;;;;;64.60;26.13;;;;;;;;;;6082888;23;20044;-82
2024/01/11 05:25:39;;;;;;;59.33;24.75;;;;;;;;;;6080773;23;20082;-81
2024/01/11 05:28:05;;;;;;;57.72;26.67;;;;;;;;;;6082077;23;20019;-81
2024/01/11 05:30:31;;;;;;;70.40;26.40;;;;;;;;;;6083448;23;20058;-81
2024/01/11 05:32:59;;;;;;;53.83;26.25;;;;;;;;;;6083490;23;20359;-81
2024/01/11 05:35:27;;;;;;;59.17;25.05;;;;;;;;;;6082475;23;20027;-81
2024/01/11 05:37:54;;;;;;;63.78;26.52;;;;;;;;;;6081787;23;20070;-81
2024/01/11 05:40:21;;;;;;;57.75;25.17;;;;;;;;;;6081144;23;20051;-81
2024/01/11 05:42:47;;;;;;;61.25;26.77;;;;;;;;;;6083017;23;20043;-80
2024/01/11 05:45:16;;;;;;;55.00;25.05;;;;;;;;;;6082487;23;20027;-82
2024/01/11 05:47:43;;;;;;;62.38;25.88;;;;;;;;;;6083751;23;20019;-81
2024/01/11 05:50:11;;;;;;;62.97;27.17;;;;;;;;;;6083499;23;20332;-81
2024/01/11 05:52:37;;;;;;;64.35;27.15;;;;;;;;;;6083539;23;20026;-81
2024/01/11 05:55:05;;;;;;;62.50;28.13;;;;;;;;;;6081486;23;20022;-80
2024/01/11 05:57:31;;;;;;;62.53;27.65;;;;;;;;;;6081074;23;20022;-82
2024/01/11 05:59:57;;;;;;;61.70;26.63;;;;;;;;;;6080455;23;20082;-80
2024/01/11 06:02:24;;;;;;;64.70;27.48;;;;;;;;;;6079692;23;20026;-80
2024/01/11 06:04:50;;;;;;;69.15;27.92;;;;;;;;;;6079546;23;20073;-81
2024/01/11 06:07:18;;;;;;;65.53;26.63;;;;;;;;;;6080915;23;20023;-81
2024/01/11 06:09:45;;;;;;;63.63;26.85;;;;;;;;;;6080984;23;20037;-82
2024/01/11 06:12:12;;;;;;;68.47;28.05;;;;;;;;;;6080317;23;20026;-81
2024/01/11 06:14:39;;;;;;;73.75;27.80;;;;;;;;;;6079492;23;20034;-81
2024/01/11 06:17:06;;;;;;;70.30;28.55;;;;;;;;;;6081015;23;20038;-80
2024/01/11 06:19:32;;;;;;;64.20;27.77;;;;;;;;;;6069779;23;20059;-81
2024/01/11 06:21:59;;;;;;;62.70;25.30;;;;;;;;;;6077322;23;20030;-82
2024/01/11 06:24:27;;;;;;;64.80;27.05;;;;;;;;;;6077235;23;20027;-82
2024/01/11 06:26:53;;;;;;;66.38;27.55;;;;;;;;;;6080385;23;20029;-81
2024/01/11 06:29:22;;;;;;;66.20;28.23;;;;;;;;;;6080905;23;20018;-82
2024/01/11 06:31:49;;;;;;;65.85;28.15;;;;;;;;;;6080211;23;20023;-82
2024/01/11 06:34:20;;;;;;;65.95;29.17;;;;;;;;;;6080351;23;20494;-82
2024/01/11 06:37:15;;;;;;;64.32;28.13;;;;;;;;;;6077440;23;20023;-82
2024/01/11 06:39:51;;;;;;;61.88;26.85;;;;;;;;;;6074467;23;20042;-82
2024/01/11 06:42:35;;;;;;;65.75;27.35;;;;;;;;;;6078714;23;20497;-82
2024/01/11 06:45:24;;;;;;;71.05;28.77;;;;;;;;;;6078672;23;20025;-82
2024/01/11 06:48:01;;;;;;;60.13;28.00;;;;;;;;;;6061029;23;20078;-82
2024/01/11 06:50:42;;;;;;;68.07;28.85;;;;;;;;;;6077194;23;20019;-80
2024/01/11 06:53:09;;;;;;;64.70;28.73;;;;;;;;;;6079592;23;20030;-82
2024/01/11 06:55:43;;;;;;;79.20;31.52;;;;;;;;;;6078200;23;20027;-82
2024/01/11 06:58:11;;;;;;;73.00;29.65;;;;;;;;;;6077284;23;20015;-82
2024/01/11 07:00:42;;;;;;;65.00;30.33;;;;;;;;;;6073265;23;20022;-82
2024/01/11 07:09:24;;;;;;;79.30;33.08;;;;;;;;;;5958234;24;20037;-83
2024/01/11 07:12:07;;;;;;;74.10;33.38;;;;;;;;;;5957967;24;20435;-84
2024/01/11 07:20:56;;;;;;;79.65;35.22;;;;;;;;;;5988361;23;20031;-80
2024/01/11 07:26:18;;;;;;;77.43;35.03;;;;;;;;;;5966768;23;20035;-81
2024/01/11 07:31:13;;;;;;;73.13;33.42;;;;;;;;;;6141056;23;20014;-81
2024/01/11 07:33:40;;;;;;;73.43;33.50;;;;;;;;;;6141249;23;20049;-79
2024/01/11 07:36:07;;;;;;;81.85;34.42;;;;;;;;;;6142247;23;20077;-80
2024/01/11 07:38:33;;;;;;;78.43;36.22;;;;;;;;;;6143420;23;20026;-81
2024/01/11 07:41:00;;;;;;;74.13;35.47;;;;;;;;;;6104651;23;20046;-82
2024/01/11 07:43:28;;;;;;;82.93;37.50;;;;;;;;;;6105092;23;20049;-82
2024/01/11 07:45:56;;;;;;;86.68;39.55;;;;;;;;;;6105580;23;20029;-81
2024/01/11 07:48:24;;;;;;;80.05;37.08;;;;;;;;;;6105569;23;20018;-82
2024/01/11 07:50:50;;;;;;;79.85;37.67;;;;;;;;;;6103871;23;20026;-81
2024/01/11 07:53:16;;;;;;;81.85;38.13;;;;;;;;;;6104340;23;20238;-81
2024/01/11 07:55:43;;;;;;;76.90;35.53;;;;;;;;;;6104480;23;20407;-81
2024/01/11 07:58:11;;;;;;;74.38;35.83;;;;;;;;;;6104193;23;20085;-81
2024/01/11 08:00:38;;;;;;;80.50;35.70;;;;;;;;;;6106317;23;20109;-82
2024/01/11 08:03:05;;;;;;;86.35;37.50;;;;;;;;;;6105423;23;20026;-81
2024/01/11 08:05:33;;;;;;;85.75;36.58;;;;;;;;;;6109394;23;20037;-81
2024/01/11 08:08:01;;;;;;;81.32;40.42;;;;;;;;;;6110155;23;20324;-81
2024/01/11 08:10:28;;;;;;;85.75;38.70;;;;;;;;;;6106807;23;20120;-79
2024/01/11 08:12:55;;;;;;;78.75;37.40;;;;;;;;;;6102480;23;20065;-81
2024/01/11 08:15:21;;;;;;;81.07;37.88;;;;;;;;;;6103151;23;20049;-81
2024/01/11 08:17:48;;;;;;;78.32;38.28;;;;;;;;;;6104159;23;20050;-81
2024/01/11 08:20:15;;;;;;;88.13;38.88;;;;;;;;;;6103458;23;20026;-81
2024/01/11 08:22:43;;;;;;;79.65;38.28;;;;;;;;;;6105325;23;20033;-83
2024/01/11 08:25:09;;;;;;;72.35;35.15;;;;;;;;;;6105364;23;20363;-81
2024/01/11 08:27:36;;;;;;;78.53;37.28;;;;;;;;;;6111458;23;20023;-80
2024/01/11 08:30:04;;;;;;;74.60;35.45;;;;;;;;;;6105721;23;20459;-81
2024/01/11 08:32:30;;;;;;;74.60;35.88;;;;;;;;;;6104675;23;20026;-80
2024/01/11 08:34:57;;;;;;;67.28;33.15;;;;;;;;;;6105807;23;20034;-81
2024/01/11 08:37:24;;;;;;;79.28;35.85;;;;;;;;;;6106647;23;20466;-80
2024/01/11 08:39:52;;;;;;;75.65;35.28;;;;;;;;;;6105916;23;20023;-81
2024/01/11 08:42:18;;;;;;;78.63;35.55;;;;;;;;;;6102285;23;20493;-80
2024/01/11 08:44:45;;;;;;;79.85;35.40;;;;;;;;;;6102414;23;20026;-80
2024/01/11 08:47:11;;;;;;;73.03;35.95;;;;;;;;;;6105061;23;20026;-80
2024/01/11 08:49:39;;;;;;;69.40;34.60;;;;;;;;;;6105390;23;20029;-81
2024/01/11 08:52:06;;;;;;;80.72;37.40;;;;;;;;;;6103567;23;20693;-79
2024/01/11 08:54:32;;;;;;;81.63;36.85;;;;;;;;;;6103186;23;20413;-80
2024/01/11 08:57:00;;;;;;;72.90;35.22;;;;;;;;;;6104538;23;20026;-79
2024/01/11 08:59:27;;;;;;;80.05;37.08;;;;;;;;;;6103717;23;20019;-82
2024/01/11 09:01:53;;;;;;;77.60;36.88;;;;;;;;;;6104151;23;20045;-81
2024/01/11 09:04:19;;;;;;;76.43;36.28;;;;;;;;;;6103216;23;20041;-81
2024/01/11 09:06:46;;;;;;;80.68;38.00;;;;;;;;;;6103783;23;20014;-81
2024/01/11 09:09:13;;;;;;;85.10;36.75;;;;;;;;;;6102415;23;20026;-79
2024/01/11 09:11:40;;;;;;;79.53;38.40;;;;;;;;;;6102763;23;20030;-78
2024/01/11 09:14:10;;;;;;;83.88;38.58;;;;;;;;;;6102838;23;20336;-80
2024/01/11 09:16:37;;;;;;;80.00;39.35;;;;;;;;;;6103545;23;20049;-80
2024/01/11 09:19:03;;;;;;;80.63;37.25;;;;;;;;;;6103435;23;20022;-81
2024/01/11 09:21:30;;;;;;;75.75;36.80;;;;;;;;;;6102590;23;20057;-81
2024/01/11 09:23:56;;;;;;;78.28;38.38;;;;;;;;;;6102438;23;20478;-81
2024/01/11 09:26:22;;;;;;;77.57;37.95;;;;;;;;;;6102730;23;20049;-80
2024/01/11 09:28:49;;;;;;;75.20;37.80;;;;;;;;;;6101817;23;20014;-81
2024/01/11 09:31:17;;;;;;;85.50;39.60;;;;;;;;;;6102377;23;20462;-80
2024/01/11 09:33:45;;;;;;;81.07;36.85;;;;;;;;;;6101636;23;20050;-81
2024/01/11 09:36:11;;;;;;;74.03;37.55;;;;;;;;;;6101189;23;20042;-81
2024/01/11 09:38:37;;;;;;;79.03;36.90;;;;;;;;;;6101199;23;20057;-82
2024/01/11 09:41:08;;;;;;;88.95;38.00;;;;;;;;;;6101988;23;20026;-82
2024/01/11 09:43:34;;;;;;;86.78;38.65;;;;;;;;;;6102229;23;20089;-82
2024/01/11 09:46:01;;;;;;;78.30;37.45;;;;;;;;;;6103321;23;20027;-82
2024/01/11 09:48:29;;;;;;;81.55;37.90;;;;;;;;;;6102876;23;20027;-82
2024/01/11 09:50:57;;;;;;;77.80;37.88;;;;;;;;;;6102065;23;20026;-81
2024/01/11 09:53:26;;;;;;;77.97;37.25;;;;;;;;;;6102741;23;20033;-81
2024/01/11 09:55:54;;;;;;;77.78;37.13;;;;;;;;;;6101807;23;20029;-81
2024/01/11 09:58:21;;;;;;;74.55;38.50;;;;;;;;;;6102336;23;20078;-81
2024/01/11 10:00:50;;;;;;;75.40;37.05;;;;;;;;;;6102807;23;20034;-81
2024/01/11 10:03:17;;;;;;;70.28;36.50;;;;;;;;;;6102833;23;20026;-82
2024/01/11 10:05:45;;;;;;;83.32;38.20;;;;;;;;;;6101409;23;20064;-81
2024/01/11 10:08:12;;;;;;;80.13;38.83;;;;;;;;;;6103969;23;20057;-82
2024/01/11 10:10:38;;;;;;;71.78;38.53;;;;;;;;;;6105076;23;20142;-81
2024/01/11 10:13:06;;;;;;;81.00;36.53;;;;;;;;;;6106833;23;20023;-81
2024/01/11 10:15:32;;;;;;;85.65;40.35;;;;;;;;;;6105105;23;20030;-80
2024/01/11 10:17:59;;;;;;;83.18;38.17;;;;;;;;;;6103004;23;20061;-79
2024/01/11 10:20:25;;;;;;;80.10;40.78;;;;;;;;;;6104319;23;20022;-81
2024/01/11 10:22:53;;;;;;;80.03;38.50;;;;;;;;;;6103865;23;20411;-79
2024/01/11 10:25:20;;;;;;;75.53;37.67;;;;;;;;;;6103226;23;20054;-80
2024/01/11 10:27:46;;;;;;;70.68;35.78;;;;;;;;;;6103894;23;20023;-81
2024/01/11 10:30:16;;;;;;;78.13;37.05;;;;;;;;;;6103735;23;20415;-80
2024/01/11 10:32:42;;;;;;;74.00;37.47;;;;;;;;;;6105024;23;20102;-81
2024/01/11 10:35:09;;;;;;;71.18;35.90;;;;;;;;;;6104819;23;20380;-80
2024/01/11 10:37:38;;;;;;;72.00;36.17;;;;;;;;;;6104246;23;20077;-80
2024/01/11 10:40:12;;;;;;;72.28;37.00;;;;;;;;;;6108698;23;20093;-82
2024/01/11 10:42:41;;;;;;;70.47;34.88;;;;;;;;;;6104528;23;20026;-82
2024/01/11 10:45:11;;;;;;;70.30;35.78;;;;;;;;;;6104241;23;20070;-82
2024/01/11 10:47:38;;;;;;;69.45;34.72;;;;;;;;;;6104918;23;20026;-81
2024/01/11 10:50:10;;;;;;;68.97;35.72;;;;;;;;;;6106007;23;20467;-81
2024/01/11 10:52:40;;;;;;;75.65;36.83;;;;;;;;;;6108330;23;20026;-81
2024/01/11 10:55:15;;;;;;;72.57;35.50;;;;;;;;;;6106380;23;20060;-82
2024/01/11 10:57:48;;;;;;;72.35;34.45;;;;;;;;;;6104772;23;20050;-81
2024/01/11 11:00:22;;;;;;;72.80;35.33;;;;;;;;;;6106510;23;20014;-80
2024/01/11 11:02:48;;;;;;;67.75;35.03;;;;;;;;;;6102081;23;20132;-81
2024/01/11 11:05:15;;;;;;;72.45;35.85;;;;;;;;;;6101925;23;20058;-81
2024/01/11 11:07:42;;;;;;;75.50;37.78;;;;;;;;;;6104683;23;20076;-81
2024/01/11 11:10:10;;;;;;;75.75;36.17;;;;;;;;;;6106506;23;20037;-81
2024/01/11 11:12:38;;;;;;;71.47;34.88;;;;;;;;;;6119007;23;20033;-81
2024/01/11 11:15:06;;;;;;;72.22;36.00;;;;;;;;;;6119509;23;20037;-82
2024/01/11 11:17:35;;;;;;;65.32;34.13;;;;;;;;;;6112876;23;20037;-82
2024/01/11 11:20:01;;;;;;;74.75;39.40;;;;;;;;;;6106092;23;20042;-82
2024/01/11 11:22:30;;;;;;;72.13;36.28;;;;;;;;;;6106786;23;20030;-82
2024/01/11 11:25:04;;;;;;;75.60;38.67;;;;;;;;;;6103353;23;20026;-81
2024/01/11 11:27:32;;;;;;;77.07;37.72;;;;;;;;;;6102686;23;20045;-82
2024/01/11 11:29:59;;;;;;;79.10;38.58;;;;;;;;;;6104798;23;20019;-82
2024/01/11 11:32:35;;;;;;;74.03;38.08;;;;;;;;;;6102731;23;20509;-83
2024/01/11 11:35:02;;;;;;;69.72;37.17;;;;;;;;;;6101880;23;20044;-82
2024/01/11 11:37:31;;;;;;;65.25;35.28;;;;;;;;;;6102477;23;20027;-82
2024/01/11 11:39:59;;;;;;;67.60;35.53;;;;;;;;;;6105962;23;20362;-82
2024/01/11 11:42:25;;;;;;;65.32;34.67;;;;;;;;;;6114071;23;20027;-81
2024/01/11 11:45:08;;;;;;;72.18;36.83;;;;;;;;;;6113186;23;20086;-82
2024/01/11 11:47:38;;;;;;;62.70;34.20;;;;;;;;;;6114409;23;20019;-81
2024/01/11 11:50:06;;;;;;;65.30;35.33;;;;;;;;;;6104821;23;20351;-82
2024/01/11 11:52:33;;;;;;;69.10;36.25;;;;;;;;;;6103222;23;20026;-82
2024/01/11 11:55:03;;;;;;;67.93;35.45;;;;;;;;;;6105081;23;20037;-82
2024/01/11 11:57:29;;;;;;;74.10;38.55;;;;;;;;;;6102949;23;20027;-82
2024/01/11 12:00:05;;;;;;;71.10;36.20;;;;;;;;;;6103584;23;20022;-81
2024/01/11 12:02:31;;;;;;;66.78;37.75;;;;;;;;;;6104996;23;20085;-83
2024/01/11 12:04:58;;;;;;;70.10;36.72;;;;;;;;;;6104079;23;20026;-82
2024/01/11 12:07:29;;;;;;;72.72;38.60;;;;;;;;;;6102619;23;20483;-82
2024/01/11 12:10:04;;;;;;;71.78;37.92;;;;;;;;;;6102690;23;20033;-83
2024/01/11 12:12:34;;;;;;;77.65;36.80;;;;;;;;;;6103014;23;20085;-82
2024/01/11 12:15:03;;;;;;;67.40;35.42;;;;;;;;;;6101199;23;20033;-81
2024/01/11 12:17:29;;;;;;;72.82;37.10;;;;;;;;;;6101349;23;20058;-82
2024/01/11 12:19:56;;;;;;;70.97;35.38;;;;;;;;;;6101422;23;20103;-82
2024/01/11 12:22:22;;;;;;;76.43;37.17;;;;;;;;;;6102997;23;20467;-81
2024/01/11 12:24:57;;;;;;;77.35;38.15;;;;;;;;;;6103428;23;20026;-84
2024/01/11 12:27:24;;;;;;;74.82;37.45;;;;;;;;;;6103373;23;20026;-81
2024/01/11 12:29:53;;;;;;;80.25;38.35;;;;;;;;;;6103073;23;20018;-82
2024/01/11 12:32:22;;;;;;;69.93;36.10;;;;;;;;;;6102044;23;20022;-79
2024/01/11 12:34:48;;;;;;;80.75;38.92;;;;;;;;;;6101456;23;20027;-79
2024/01/11 12:37:16;;;;;;;73.40;37.25;;;;;;;;;;6100923;23;20030;-82
2024/01/11 12:39:42;;;;;;;76.97;35.80;;;;;;;;;;6101233;23;20356;-83
2024/01/11 12:42:09;;;;;;;77.85;37.97;;;;;;;;;;6100926;23;20037;-80
2024/01/11 12:44:43;;;;;;;77.15;37.78;;;;;;;;;;6100365;23;20026;-80
2024/01/11 12:47:10;;;;;;;68.72;34.20;;;;;;;;;;6101135;23;20027;-79
2024/01/11 12:49:45;;;;;;;71.45;36.15;;;;;;;;;;6100837;23;20022;-80
2024/01/11 12:52:16;;;;;;;77.93;35.63;;;;;;;;;;6101431;23;20023;-80
2024/01/11 12:54:44;;;;;;;70.43;34.53;;;;;;;;;;6106414;23;20077;-81
2024/01/11 12:57:12;;;;;;;65.70;35.03;;;;;;;;;;6108965;23;20061;-81
2024/01/11 12:59:39;;;;;;;66.35;33.13;;;;;;;;;;6106073;23;20053;-81
2024/01/11 13:02:06;;;;;;;75.05;35.45;;;;;;;;;;6103852;23;20098;-81
2024/01/11 13:04:46;;;;;;;65.25;33.75;;;;;;;;;;6101921;23;20069;-82
2024/01/11 13:07:15;;;;;;;61.15;31.88;;;;;;;;;;6102195;23;20103;-82
2024/01/11 13:09:42;;;;;;;58.80;30.45;;;;;;;;;;6101106;23;20022;-82
2024/01/11 13:12:09;;;;;;;59.28;31.85;;;;;;;;;;6102331;23;20026;-82
2024/01/11 13:14:35;;;;;;;56.33;30.20;;;;;;;;;;6101416;23;20026;-81
2024/01/11 13:17:02;;;;;;;64.43;30.85;;;;;;;;;;6103568;23;20058;-81
2024/01/11 13:19:29;;;;;;;63.90;32.30;;;;;;;;;;6101561;23;20490;-81
2024/01/11 13:21:57;;;;;;;61.40;30.75;;;;;;;;;;6101851;23;20462;-81
2024/01/11 13:24:24;;;;;;;62.42;31.88;;;;;;;;;;6102100;23;20050;-81
2024/01/11 13:26:50;;;;;;;60.28;31.17;;;;;;;;;;6100391;23;20035;-82
2024/01/11 13:32:15;;;;;;;60.05;32.17;;;;;;;;;;5965753;23;20031;-82
2024/01/11 13:34:45;;;;;;;55.65;30.92;;;;;;;;;;6098609;23;20026;-82
2024/01/11 13:37:14;;;;;;;61.42;32.33;;;;;;;;;;6105842;23;20046;-80
2024/01/11 13:39:40;;;;;;;64.00;32.00;;;;;;;;;;6098002;23;20467;-81
2024/01/11 13:42:09;;;;;;;60.08;32.63;;;;;;;;;;6076298;23;20023;-82
2024/01/11 13:45:03;;;;;;;71.40;32.45;;;;;;;;;;6080980;23;20030;-82
2024/01/11 13:47:29;;;;;;;60.30;32.25;;;;;;;;;;6048493;23;20019;-82
2024/01/11 13:49:58;;;;;;;65.03;32.63;;;;;;;;;;6076340;23;20053;-82
2024/01/11 13:52:26;;;;;;;64.60;32.65;;;;;;;;;;6075868;23;20023;-82
2024/01/11 13:55:03;;;;;;;59.17;32.25;;;;;;;;;;6076296;23;20038;-80
2024/01/11 13:57:31;;;;;;;66.80;32.92;;;;;;;;;;6076296;23;20491;-81
2024/01/11 13:59:58;;;;;;;63.05;31.15;;;;;;;;;;6076100;23;20050;-82
2024/01/11 14:02:30;;;;;;;60.88;31.23;;;;;;;;;;6076688;23;20026;-81
2024/01/11 14:04:56;;;;;;;64.37;30.83;;;;;;;;;;6075442;23;20030;-82
2024/01/11 14:07:24;;;;;;;64.82;31.00;;;;;;;;;;6074959;23;20074;-82
2024/01/11 14:09:54;;;;;;;64.53;31.42;;;;;;;;;;6076666;23;20033;-82
2024/01/11 14:12:21;;;;;;;59.67;31.80;;;;;;;;;;6075820;23;20027;-82
2024/01/11 14:14:47;;;;;;;62.85;32.75;;;;;;;;;;6076150;23;20034;-82
2024/01/11 14:17:14;;;;;;;65.10;30.95;;;;;;;;;;6075869;23;20026;-80
2024/01/11 14:19:40;;;;;;;62.85;30.95;;;;;;;;;;6074194;23;20041;-80
2024/01/11 14:22:06;;;;;;;65.68;30.27;;;;;;;;;;6072249;23;20023;-83
2024/01/11 14:24:33;;;;;;;60.85;30.23;;;;;;;;;;6072923;23;20026;-82
2024/01/11 14:27:01;;;;;;;57.50;29.80;;;;;;;;;;6083331;23;20027;-84
2024/01/11 14:29:29;;;;;;;61.20;28.83;;;;;;;;;;6092483;23;20027;-82
2024/01/11 14:31:55;;;;;;;63.70;30.88;;;;;;;;;;6092475;23;20034;-84
2024/01/11 14:34:22;;;;;;;64.75;31.77;;;;;;;;;;6088815;23;20027;-85
2024/01/11 14:36:50;;;;;;;56.80;29.33;;;;;;;;;;6089339;23;20033;-80
2024/01/11 14:39:17;;;;;;;62.55;31.25;;;;;;;;;;6086162;23;20027;-81
2024/01/11 14:41:43;;;;;;;62.60;29.58;;;;;;;;;;6088946;23;20027;-81
2024/01/11 14:44:11;;;;;;;70.13;31.60;;;;;;;;;;6085387;23;20042;-84